createdAt,value
2024-01-24T00:01:02.020Z,1.70
2024-01-24T00:03:28.825Z,1.43
2024-01-24T00:05:55.395Z,1.43
2024-01-24T00:08:21.805Z,2.50
2024-01-24T00:10:48.426Z,2.30
2024-01-24T00:13:14.846Z,1.70
2024-01-24T00:15:41.416Z,2.83
2024-01-24T00:18:07.952Z,2.20
2024-01-24T00:20:34.408Z,1.33
2024-01-24T00:23:00.824Z,3.77
2024-01-24T00:25:27.305Z,1.70
2024-01-24T00:27:53.734Z,1.77
2024-01-24T00:30:20.205Z,1.70
2024-01-24T00:32:46.700Z,1.27
2024-01-24T00:35:13.157Z,1.90
2024-01-24T00:37:39.628Z,1.70
2024-01-24T00:40:07.608Z,1.80
2024-01-24T00:42:34.100Z,2.40
2024-01-24T00:45:00.687Z,1.57
2024-01-24T00:47:27.219Z,1.10
2024-01-24T00:49:53.669Z,1.50
2024-01-24T00:52:20.117Z,1.80
2024-01-24T00:54:46.962Z,1.87
2024-01-24T00:57:13.531Z,1.40
2024-01-24T00:59:39.989Z,1.60
2024-01-24T01:02:06.424Z,1.60
2024-01-24T01:04:33.034Z,1.50
2024-01-24T01:06:59.510Z,1.40
2024-01-24T01:09:25.954Z,1.67
2024-01-24T01:11:52.437Z,1.40
2024-01-24T01:14:18.955Z,1.30
2024-01-24T01:16:45.363Z,1.60
2024-01-24T01:19:11.973Z,1.10
2024-01-24T01:21:41.308Z,1.60
2024-01-24T01:24:09.471Z,1.17
2024-01-24T01:26:36.279Z,1.50
2024-01-24T01:29:03.067Z,1.10
2024-01-24T01:31:29.557Z,1.13
2024-01-24T01:33:56.868Z,1.20
2024-01-24T01:36:23.996Z,1.90
2024-01-24T01:38:51.101Z,1.63
2024-01-24T01:41:18.537Z,1.47
2024-01-24T01:43:45.621Z,1.30
2024-01-24T01:46:21.312Z,1.23
2024-01-24T01:48:50.716Z,1.10
2024-01-24T01:51:18.692Z,1.47
2024-01-24T01:53:46.951Z,1.43
2024-01-24T01:56:16.768Z,1.40
2024-01-24T01:58:45.118Z,1.67
2024-01-24T02:01:12.185Z,1.50
2024-01-24T02:03:39.126Z,1.60
2024-01-24T02:06:05.953Z,1.70
2024-01-24T02:08:36.464Z,1.30
2024-01-24T02:11:04.275Z,1.97
2024-01-24T02:13:32.693Z,1.73
2024-01-24T02:16:00.764Z,1.70
2024-01-24T02:18:27.481Z,1.10
2024-01-24T02:20:53.987Z,1.60
2024-01-24T02:23:23.390Z,1.43
2024-01-24T02:25:51.098Z,1.20
2024-01-24T02:28:17.744Z,1.40
2024-01-24T02:30:44.270Z,1.80
2024-01-24T02:33:11.029Z,1.40
2024-01-24T02:35:37.816Z,1.50
2024-01-24T02:38:04.474Z,1.57
2024-01-24T02:40:30.909Z,1.30
2024-01-24T02:42:57.391Z,1.20
2024-01-24T02:45:23.990Z,1.10
2024-01-24T02:47:50.795Z,1.33
2024-01-24T02:50:17.319Z,1.47
2024-01-24T02:52:43.851Z,2.20
2024-01-24T02:55:18.133Z,1.37
2024-01-24T02:57:45.221Z,1.10
2024-01-24T03:00:13.934Z,1.60
2024-01-24T03:02:41.061Z,1.50
2024-01-24T03:05:09.923Z,1.60
2024-01-24T03:07:37.571Z,1.00
2024-01-24T03:10:07.305Z,1.87
2024-01-24T03:12:34.153Z,1.40
2024-01-24T03:15:00.878Z,1.60
2024-01-24T03:17:27.363Z,1.57
2024-01-24T03:19:53.997Z,1.50
2024-01-24T03:22:21.219Z,1.00
2024-01-24T03:24:47.774Z,1.00
2024-01-24T03:27:14.271Z,1.50
2024-01-24T03:29:42.144Z,1.43
2024-01-24T03:32:08.565Z,1.23
2024-01-24T03:34:35.065Z,1.50
2024-01-24T03:37:01.587Z,1.27
2024-01-24T03:39:28.962Z,1.53
2024-01-24T03:41:55.429Z,1.47
2024-01-24T03:44:21.868Z,1.10
2024-01-24T03:46:48.367Z,1.13
2024-01-24T03:49:15.964Z,1.30
2024-01-24T03:51:42.629Z,1.47
2024-01-24T03:54:09.130Z,1.30
2024-01-24T03:56:35.598Z,1.10
2024-01-24T03:59:02.108Z,1.37
2024-01-24T04:01:28.757Z,1.30
2024-01-24T04:03:55.813Z,1.30
2024-01-24T04:06:22.523Z,1.13
2024-01-24T04:08:49.006Z,1.37
2024-01-24T04:11:15.538Z,1.30
2024-01-24T04:13:43.489Z,1.33
2024-01-24T04:16:09.983Z,1.43
2024-01-24T04:18:36.584Z,1.40
2024-01-24T04:21:03.275Z,1.00
2024-01-24T04:23:29.687Z,1.10
2024-01-24T04:25:56.760Z,1.67
2024-01-24T04:28:23.293Z,1.63
2024-01-24T04:30:49.807Z,1.33
2024-01-24T04:33:16.376Z,1.20
2024-01-24T04:35:42.882Z,1.47
2024-01-24T04:38:09.518Z,1.63
2024-01-24T04:40:36.011Z,1.10
2024-01-24T04:43:02.537Z,1.27
2024-01-24T04:45:29.160Z,1.33
2024-01-24T04:47:55.742Z,1.70
2024-01-24T04:50:23.042Z,1.47
2024-01-24T04:52:49.766Z,1.30
2024-01-24T04:55:16.554Z,1.70
2024-01-24T04:57:43.185Z,1.43
2024-01-24T05:00:11.006Z,1.50
2024-01-24T05:02:38.637Z,1.67
2024-01-24T05:05:08.038Z,1.43
2024-01-24T05:07:35.658Z,1.27
2024-01-24T05:10:04.497Z,1.30
2024-01-24T05:12:31.582Z,1.60
2024-01-24T05:14:58.461Z,2.27
2024-01-24T05:17:24.937Z,1.10
2024-01-24T05:19:51.392Z,1.80
2024-01-24T05:22:17.832Z,1.33
2024-01-24T05:24:46.233Z,1.30
2024-01-24T05:27:13.879Z,1.40
2024-01-24T05:29:40.583Z,1.50
2024-01-24T05:32:07.506Z,1.67
2024-01-24T05:34:34.006Z,1.50
2024-01-24T05:37:00.911Z,1.63
2024-01-24T05:39:27.514Z,1.57
2024-01-24T05:41:54.072Z,1.63
2024-01-24T05:44:21.276Z,1.50
2024-01-24T05:46:47.727Z,1.83
2024-01-24T05:49:14.388Z,1.70
2024-01-24T05:51:41.960Z,1.73
2024-01-24T05:54:08.393Z,1.40
2024-01-24T05:56:36.391Z,1.60
2024-01-24T05:59:02.843Z,1.50
2024-01-24T06:01:29.480Z,1.47
2024-01-24T06:03:56.149Z,1.43
2024-01-24T06:06:23.066Z,1.33
2024-01-24T06:08:49.653Z,1.43
2024-01-24T06:11:18.009Z,2.00
2024-01-24T06:13:44.957Z,1.27
2024-01-24T06:16:11.568Z,1.40
2024-01-24T06:18:38.104Z,1.37
2024-01-24T06:21:04.808Z,1.23
2024-01-24T06:23:31.238Z,1.73
2024-01-24T06:25:57.684Z,1.37
2024-01-24T06:28:24.124Z,1.20
2024-01-24T06:30:52.513Z,1.03
2024-01-24T06:33:19.110Z,1.17
2024-01-24T06:35:45.631Z,1.33
2024-01-24T06:38:12.074Z,1.33
2024-01-24T06:40:38.499Z,1.30
2024-01-24T06:43:05.003Z,1.17
2024-01-24T06:45:31.490Z,1.40
2024-01-24T06:47:59.045Z,1.20
2024-01-24T06:50:25.732Z,1.10
2024-01-24T06:52:52.356Z,1.50
2024-01-24T06:55:19.078Z,1.00
2024-01-24T06:57:45.776Z,1.10
2024-01-24T07:00:12.769Z,1.00
2024-01-24T07:02:39.317Z,1.30
2024-01-24T07:05:06.706Z,1.00
2024-01-24T07:07:33.735Z,1.13
2024-01-24T07:10:00.390Z,1.27
2024-01-24T07:12:26.994Z,0.93
2024-01-24T07:14:53.888Z,1.40
2024-01-24T07:17:20.765Z,1.10
2024-01-24T07:19:48.021Z,1.10
2024-01-24T07:22:15.210Z,2.20
2024-01-24T07:24:44.569Z,1.30
2024-01-24T07:27:11.122Z,1.30
2024-01-24T07:29:37.587Z,1.00
2024-01-24T07:32:04.820Z,1.10
2024-01-24T07:34:31.342Z,1.00
2024-01-24T07:36:57.864Z,1.00
2024-01-24T07:39:24.467Z,0.97
2024-01-24T07:41:50.918Z,1.43
2024-01-24T07:44:17.363Z,1.10
2024-01-24T07:46:44.467Z,1.10
2024-01-24T07:49:11.712Z,1.07
2024-01-24T07:51:38.937Z,1.20
2024-01-24T07:54:06.057Z,0.97
2024-01-24T07:56:32.699Z,1.07
2024-01-24T07:58:59.641Z,1.10
2024-01-24T08:01:26.306Z,1.43
2024-01-24T08:03:53.364Z,1.20
2024-01-24T08:06:20.181Z,1.47
2024-01-24T08:08:47.043Z,1.10
2024-01-24T08:11:13.592Z,1.20
2024-01-24T08:13:40.073Z,1.30
2024-01-24T08:16:08.838Z,1.43
2024-01-24T08:18:35.454Z,0.90
2024-01-24T08:21:02.820Z,1.53
2024-01-24T08:23:38.281Z,1.20
2024-01-24T08:26:10.948Z,1.10
2024-01-24T08:28:37.471Z,1.23
2024-01-24T08:31:04.572Z,1.30
2024-01-24T08:33:33.560Z,1.00
2024-01-24T08:36:00.434Z,1.10
2024-01-24T08:38:26.996Z,1.07
2024-01-24T08:40:53.487Z,1.00
2024-01-24T08:43:19.913Z,1.00
2024-01-24T08:45:49.566Z,0.97
2024-01-24T08:48:18.975Z,1.00
2024-01-24T08:50:45.621Z,1.03
2024-01-24T08:53:12.076Z,1.50
2024-01-24T08:55:38.881Z,1.20
2024-01-24T08:58:06.032Z,1.20
2024-01-24T09:00:32.644Z,1.20
2024-01-24T09:02:59.714Z,4.30
2024-01-24T09:05:26.832Z,1.20
2024-01-24T09:07:54.118Z,1.10
2024-01-24T09:10:20.916Z,1.13
2024-01-24T09:12:48.404Z,1.00
2024-01-24T09:15:16.410Z,1.20
2024-01-24T09:17:43.122Z,1.10
2024-01-24T09:20:10.721Z,0.93
2024-01-24T09:22:37.810Z,0.90
2024-01-24T09:25:07.943Z,0.97
2024-01-24T09:27:36.043Z,0.90
2024-01-24T09:30:02.730Z,1.00
2024-01-24T09:32:29.265Z,0.83
2024-01-24T09:34:56.164Z,1.00
2024-01-24T09:37:22.876Z,0.80
2024-01-24T09:39:51.760Z,1.40
2024-01-24T09:42:28.999Z,0.90
2024-01-24T09:44:59.714Z,0.83
2024-01-24T09:47:27.135Z,1.00
2024-01-24T09:49:53.941Z,1.00
2024-01-24T09:52:26.099Z,0.97
2024-01-24T09:55:00.189Z,1.20
2024-01-24T09:57:28.263Z,0.80
2024-01-24T09:59:55.520Z,0.80
2024-01-24T10:02:22.605Z,0.90
2024-01-24T10:04:52.241Z,1.00
2024-01-24T10:07:19.982Z,1.00
2024-01-24T10:09:47.906Z,0.83
2024-01-24T10:12:14.579Z,0.90
2024-01-24T10:14:43.995Z,0.80
2024-01-24T10:17:13.285Z,1.00
2024-01-24T10:19:40.570Z,1.00
2024-01-24T10:22:10.571Z,0.97
2024-01-24T10:24:38.085Z,0.70
2024-01-24T10:27:05.551Z,0.80
2024-01-24T10:29:32.295Z,0.70
2024-01-24T10:31:59.998Z,0.97
2024-01-24T10:34:29.965Z,0.83
2024-01-24T10:36:57.187Z,1.00
2024-01-24T10:39:26.491Z,0.77
2024-01-24T10:41:55.668Z,0.90
2024-01-24T10:44:26.219Z,0.73
2024-01-24T10:46:53.245Z,1.07
2024-01-24T10:49:24.404Z,0.60
2024-01-24T10:51:51.848Z,0.70
2024-01-24T10:54:18.542Z,0.80
2024-01-24T10:56:48.257Z,0.70
2024-01-24T10:59:17.013Z,0.80
2024-01-24T11:01:43.535Z,0.60
2024-01-24T11:04:12.796Z,0.80
2024-01-24T11:06:48.155Z,0.87
2024-01-24T11:09:27.788Z,0.97
2024-01-24T11:11:58.675Z,0.63
2024-01-24T11:14:33.280Z,0.70
2024-01-24T11:17:03.345Z,0.80
2024-01-24T11:19:33.393Z,1.00
2024-01-24T11:22:13.259Z,0.70
2024-01-24T11:24:47.145Z,0.80
2024-01-24T11:27:34.083Z,0.70
2024-01-24T11:30:08.306Z,0.70
2024-01-24T11:33:01.029Z,0.70
2024-01-24T11:35:27.640Z,0.70
2024-01-24T11:37:59.553Z,0.90
2024-01-24T11:40:40.359Z,1.10
2024-01-24T11:43:07.314Z,0.70
2024-01-24T11:45:35.411Z,0.90
2024-01-24T11:48:02.347Z,0.70
2024-01-24T11:50:29.094Z,0.90
2024-01-24T11:53:00.394Z,0.80
2024-01-24T11:55:28.899Z,0.60
2024-01-24T11:57:56.064Z,0.50
2024-01-24T12:00:24.263Z,0.60
2024-01-24T12:02:51.218Z,1.00
2024-01-24T12:05:17.971Z,0.60
2024-01-24T12:07:44.536Z,0.60
2024-01-24T12:10:11.119Z,0.50
2024-01-24T12:12:38.424Z,0.90
2024-01-24T12:15:05.913Z,0.60
2024-01-24T12:17:35.847Z,0.63
2024-01-24T12:20:08.786Z,0.83
2024-01-24T12:22:36.264Z,0.60
2024-01-24T12:25:02.802Z,0.73
2024-01-24T12:27:29.584Z,0.80
2024-01-24T12:29:56.382Z,0.60
2024-01-24T12:32:23.300Z,0.80
2024-01-24T12:34:50.154Z,0.67
2024-01-24T12:37:20.726Z,0.90
2024-01-24T12:39:52.306Z,0.60
2024-01-24T12:42:19.102Z,0.70
2024-01-24T12:44:45.720Z,0.60
2024-01-24T12:47:12.733Z,0.67
2024-01-24T12:49:39.483Z,0.70
2024-01-24T12:52:06.272Z,0.70
2024-01-24T12:54:32.804Z,0.53
2024-01-24T12:56:59.449Z,0.60
2024-01-24T12:59:26.008Z,0.60
2024-01-24T13:01:57.082Z,0.60
2024-01-24T13:04:23.648Z,0.57
2024-01-24T13:06:50.419Z,0.70
2024-01-24T13:09:17.191Z,0.60
2024-01-24T13:11:43.682Z,0.50
2024-01-24T13:14:10.825Z,0.70
2024-01-24T13:16:37.292Z,0.60
2024-01-24T13:19:03.801Z,0.60
2024-01-24T13:21:30.343Z,0.57
2024-01-24T13:24:01.533Z,0.73
2024-01-24T13:26:29.218Z,0.50
2024-01-24T13:28:55.921Z,0.70
2024-01-24T13:31:22.670Z,1.70
2024-01-24T13:33:50.588Z,0.50
2024-01-24T13:36:17.983Z,0.70
2024-01-24T13:38:44.761Z,0.50
2024-01-24T13:41:12.613Z,0.50
2024-01-24T13:43:39.155Z,0.63
2024-01-24T13:46:06.598Z,0.63
2024-01-24T13:48:33.262Z,0.70
2024-01-24T13:51:01.109Z,0.70
2024-01-24T13:53:27.589Z,0.60
2024-01-24T13:55:54.084Z,0.60
2024-01-24T13:58:21.186Z,0.50
2024-01-24T14:00:48.323Z,0.50
2024-01-24T14:03:15.724Z,0.60
2024-01-24T14:05:42.835Z,0.50
2024-01-24T14:08:09.555Z,0.50
2024-01-24T14:10:36.068Z,0.60
2024-01-24T14:13:03.124Z,0.60
2024-01-24T14:15:34.725Z,0.70
2024-01-24T14:18:03.730Z,0.90
2024-01-24T14:20:30.260Z,1.00
2024-01-24T14:22:56.990Z,0.80
2024-01-24T14:25:23.426Z,0.80
2024-01-24T14:27:50.075Z,0.60
2024-01-24T14:30:16.755Z,0.50
2024-01-24T14:32:43.313Z,0.70
2024-01-24T14:35:10.053Z,0.90
2024-01-24T14:37:36.890Z,0.70
2024-01-24T14:40:04.135Z,0.90
2024-01-24T14:42:30.790Z,0.70
2024-01-24T14:45:00.142Z,0.70
2024-01-24T14:47:27.046Z,0.70
2024-01-24T14:49:54.030Z,0.80
2024-01-24T14:52:20.598Z,0.60
2024-01-24T14:54:47.044Z,0.70
2024-01-24T14:57:13.606Z,0.60
2024-01-24T14:59:41.456Z,0.60
2024-01-24T15:02:08.216Z,0.70
2024-01-24T15:04:34.773Z,0.80
2024-01-24T15:07:01.447Z,0.70
2024-01-24T15:09:28.446Z,0.70
2024-01-24T15:11:55.856Z,0.63
2024-01-24T15:14:22.401Z,0.70
2024-01-24T15:16:48.794Z,0.63
2024-01-24T15:19:15.540Z,0.60
2024-01-24T15:21:42.325Z,0.60
2024-01-24T15:24:10.069Z,0.70
2024-01-24T15:26:37.300Z,0.70
2024-01-24T15:29:04.241Z,0.90
2024-01-24T15:31:30.729Z,1.20
2024-01-24T15:33:57.382Z,0.80
2024-01-24T15:36:23.935Z,1.10
2024-01-24T15:38:51.273Z,0.90
2024-01-24T15:41:19.991Z,1.17
2024-01-24T15:43:46.747Z,1.10
2024-01-24T15:46:13.782Z,1.37
2024-01-24T15:48:41.585Z,0.77
2024-01-24T15:51:08.875Z,0.87
2024-01-24T15:53:35.451Z,0.80
2024-01-24T15:56:02.803Z,0.90
2024-01-24T15:58:29.746Z,0.80
2024-01-24T16:00:56.235Z,0.63
2024-01-24T16:03:27.085Z,0.60
2024-01-24T16:05:53.708Z,0.60
2024-01-24T16:08:22.757Z,0.80
2024-01-24T16:10:50.538Z,0.80
2024-01-24T16:13:17.440Z,0.60
2024-01-24T16:15:43.974Z,0.70
2024-01-24T16:18:10.869Z,0.60
2024-01-24T16:20:37.330Z,0.80
2024-01-24T16:23:04.269Z,0.70
2024-01-24T16:25:30.787Z,0.60
2024-01-24T16:27:57.324Z,0.60
2024-01-24T16:30:26.619Z,0.50
2024-01-24T16:32:55.298Z,0.57
2024-01-24T16:35:22.135Z,0.50
2024-01-24T16:37:49.064Z,0.50
2024-01-24T16:40:16.510Z,0.60
2024-01-24T16:42:43.063Z,0.60
2024-01-24T16:45:10.359Z,0.50
2024-01-24T16:47:37.010Z,0.70
2024-01-24T16:50:06.680Z,0.50
2024-01-24T16:52:33.209Z,0.50
2024-01-24T16:54:59.735Z,0.50
2024-01-24T16:57:26.335Z,0.50
2024-01-24T16:59:52.791Z,0.77
2024-01-24T17:02:19.260Z,0.70
2024-01-24T17:04:46.826Z,0.60
2024-01-24T17:07:13.613Z,1.10
2024-01-24T17:09:40.987Z,0.60
2024-01-24T17:12:11.080Z,1.10
2024-01-24T17:14:39.239Z,0.90
2024-01-24T17:17:08.119Z,0.70
2024-01-24T17:19:34.594Z,0.60
2024-01-24T17:22:01.231Z,0.57
2024-01-24T17:24:27.735Z,0.60
2024-01-24T17:26:54.546Z,0.60
2024-01-24T17:29:21.025Z,0.60
2024-01-24T17:31:47.884Z,0.50
2024-01-24T17:34:14.516Z,0.97
2024-01-24T17:36:41.321Z,0.60
2024-01-24T17:39:07.907Z,0.50
2024-01-24T17:41:35.338Z,1.10
2024-01-24T17:44:01.976Z,0.60
2024-01-24T17:46:29.167Z,1.13
2024-01-24T17:48:55.736Z,0.60
2024-01-24T17:51:22.734Z,0.60
2024-01-24T17:53:49.488Z,0.60
2024-01-24T17:56:16.164Z,0.70
2024-01-24T17:58:42.763Z,0.63
2024-01-24T18:01:09.406Z,0.70
2024-01-24T18:03:36.691Z,0.70
2024-01-24T18:06:03.431Z,0.70
2024-01-24T18:08:29.960Z,0.53
2024-01-24T18:10:58.345Z,0.70
2024-01-24T18:13:26.055Z,0.70
2024-01-24T18:15:52.606Z,0.70
2024-01-24T18:18:19.682Z,0.90
2024-01-24T18:20:46.144Z,0.80
2024-01-24T18:23:12.618Z,0.60
2024-01-24T18:25:39.063Z,0.70
2024-01-24T18:28:06.453Z,0.77
2024-01-24T18:30:33.029Z,1.07
2024-01-24T18:32:59.535Z,0.80
2024-01-24T18:35:27.691Z,0.60
2024-01-24T18:37:54.093Z,0.67
2024-01-24T18:40:20.491Z,0.70
2024-01-24T18:42:47.452Z,0.60
2024-01-24T18:45:16.641Z,0.70
2024-01-24T18:47:43.404Z,0.67
2024-01-24T18:50:11.032Z,0.70
2024-01-24T18:52:38.359Z,0.70
2024-01-24T18:55:06.001Z,0.60
2024-01-24T18:57:33.020Z,0.60
2024-01-24T18:59:59.999Z,0.60
2024-01-24T19:02:26.887Z,0.60
2024-01-24T19:04:53.775Z,0.70
2024-01-24T19:07:20.577Z,0.70
2024-01-24T19:09:47.423Z,0.57
2024-01-24T19:12:14.270Z,0.60
2024-01-24T19:14:42.952Z,0.57
2024-01-24T19:17:09.815Z,0.90
2024-01-24T19:19:36.407Z,0.60
2024-01-24T19:22:03.734Z,0.80
2024-01-24T19:24:30.589Z,0.60
2024-01-24T19:26:57.701Z,0.80
2024-01-24T19:29:25.312Z,0.80
2024-01-24T19:31:52.040Z,0.80
2024-01-24T19:34:22.078Z,0.60
2024-01-24T19:36:48.682Z,0.70
2024-01-24T19:39:15.596Z,0.80
2024-01-24T19:41:42.057Z,0.67
2024-01-24T19:44:08.527Z,0.60
2024-01-24T19:46:35.365Z,0.90
2024-01-24T19:49:01.980Z,0.70
2024-01-24T19:51:28.943Z,0.70
2024-01-24T19:53:56.321Z,0.70
2024-01-24T19:56:23.048Z,0.60
2024-01-24T19:58:49.542Z,0.70
2024-01-24T20:01:16.098Z,0.60
2024-01-24T20:03:42.647Z,0.60
2024-01-24T20:06:09.170Z,0.53
2024-01-24T20:08:35.792Z,1.00
2024-01-24T20:11:02.547Z,0.60
2024-01-24T20:13:29.037Z,0.80
2024-01-24T20:15:58.464Z,0.80
2024-01-24T20:18:25.549Z,0.70
2024-01-24T20:20:52.046Z,0.70
2024-01-24T20:23:18.474Z,0.57
2024-01-24T20:25:44.961Z,0.50
2024-01-24T20:28:11.544Z,0.60
2024-01-24T20:30:38.075Z,0.80
2024-01-24T20:33:05.563Z,0.93
2024-01-24T20:35:32.622Z,0.63
2024-01-24T20:37:59.943Z,0.87
2024-01-24T20:40:26.502Z,0.70
2024-01-24T20:42:53.106Z,0.60
2024-01-24T20:45:19.582Z,0.60
2024-01-24T20:47:46.223Z,0.60
2024-01-24T20:50:13.637Z,0.50
2024-01-24T20:52:40.364Z,0.53
2024-01-24T20:55:07.207Z,0.40
2024-01-24T20:57:34.557Z,1.00
2024-01-24T21:00:02.491Z,0.50
2024-01-24T21:02:29.131Z,0.60
2024-01-24T21:04:55.749Z,0.60
2024-01-24T21:07:22.590Z,0.90
2024-01-24T21:09:49.133Z,0.60
2024-01-24T21:12:15.632Z,1.00
2024-01-24T21:14:42.361Z,0.60
2024-01-24T21:17:08.856Z,0.60
2024-01-24T21:19:35.378Z,0.83
2024-01-24T21:22:02.052Z,0.60
2024-01-24T21:24:28.617Z,0.70
2024-01-24T21:26:55.094Z,0.60
2024-01-24T21:29:21.556Z,0.53
2024-01-24T21:31:48.079Z,0.67
2024-01-24T21:34:15.986Z,0.90
2024-01-24T21:36:47.881Z,0.70
2024-01-24T21:39:15.866Z,0.70
2024-01-24T21:41:42.254Z,0.60
2024-01-24T21:44:08.672Z,0.50
2024-01-24T21:46:35.178Z,0.70
2024-01-24T21:49:01.715Z,0.50
2024-01-24T21:51:28.133Z,0.60
2024-01-24T21:53:54.629Z,0.60
2024-01-24T21:56:21.105Z,0.60
2024-01-24T21:58:47.648Z,0.60
2024-01-24T22:01:14.646Z,0.60
2024-01-24T22:03:41.250Z,0.80
2024-01-24T22:06:08.158Z,0.70
2024-01-24T22:08:35.036Z,0.50
2024-01-24T22:11:01.724Z,0.53
2024-01-24T22:13:28.162Z,0.60
2024-01-24T22:15:55.601Z,0.67
2024-01-24T22:18:27.728Z,0.70
2024-01-24T22:21:00.061Z,0.50
2024-01-24T22:23:26.467Z,0.60
2024-01-24T22:25:53.061Z,0.83
2024-01-24T22:28:19.833Z,0.60
2024-01-24T22:30:46.563Z,0.70
2024-01-24T22:33:13.289Z,0.70
2024-01-24T22:35:39.958Z,1.00
2024-01-24T22:38:06.491Z,0.80
2024-01-24T22:40:33.523Z,0.90
2024-01-24T22:43:00.372Z,0.60
2024-01-24T22:45:27.165Z,0.90
2024-01-24T22:47:55.525Z,0.70
2024-01-24T22:50:22.228Z,0.67
2024-01-24T22:52:48.782Z,0.70
2024-01-24T22:55:15.524Z,0.60
2024-01-24T22:57:47.856Z,0.83
2024-01-24T23:00:15.600Z,0.70
2024-01-24T23:02:42.015Z,0.70
2024-01-24T23:05:08.844Z,0.60
2024-01-24T23:07:35.555Z,0.97
2024-01-24T23:10:02.181Z,0.90
2024-01-24T23:12:28.653Z,0.80
2024-01-24T23:14:55.441Z,1.00
2024-01-24T23:17:21.977Z,0.80
2024-01-24T23:19:50.933Z,1.00
2024-01-24T23:22:19.337Z,1.00
2024-01-24T23:24:46.480Z,0.90
2024-01-24T23:27:13.365Z,0.80
2024-01-24T23:29:39.791Z,1.00
2024-01-24T23:32:06.937Z,0.80
2024-01-24T23:34:33.502Z,0.90
2024-01-24T23:37:00.321Z,1.00
2024-01-24T23:39:26.884Z,0.90
2024-01-24T23:41:53.329Z,1.00
2024-01-24T23:44:19.802Z,0.90
2024-01-24T23:46:46.510Z,0.90
2024-01-24T23:49:13.143Z,1.00
2024-01-24T23:51:39.912Z,1.10
2024-01-24T23:54:06.768Z,1.20
2024-01-24T23:56:33.177Z,1.10
2024-01-24T23:58:59.592Z,1.23
